Time;durP1;ratioP1;P1;durP2;ratioP2;P2;SDS_P1;SDS_P2;PMS_P1;PMS_P2;Temp;Humidity;BMP_temperature;BMP_pressure;BME280_temperature;BME280_humidity;BME280_pressure;Samples;Min_cycle;Max_cycle;Signal;HPM_P1;HPM_P2
2022/10/20 00:01:20;;;;;;;4.13;2.95;;;;;;;7.22;70.06;98957.94;6230158;22;20027;-72
2022/10/20 00:03:46;;;;;;;6.00;3.30;;;;;;;7.22;70.75;98960.59;6228835;22;20016;-73
2022/10/20 00:06:14;;;;;;;4.57;2.83;;;;;;;7.25;70.73;98962.19;6230519;22;20027;-69
2022/10/20 00:08:40;;;;;;;4.35;3.25;;;;;;;7.26;70.54;98962.06;6202574;22;20016;-69
2022/10/20 00:11:06;;;;;;;3.25;2.78;;;;;;;7.28;70.33;98967.28;6229589;22;20015;-71
2022/10/20 00:13:30;;;;;;;3.38;2.53;;;;;;;7.28;70.34;98967.28;6229831;22;20100;-70
2022/10/20 00:15:55;;;;;;;2.40;2.20;;;;;;;7.26;69.83;98980.63;6227431;22;20011;-71
2022/10/20 00:18:22;;;;;;;3.03;2.25;;;;;;;7.23;69.54;98972.03;6228556;22;20023;-69
2022/10/20 00:20:47;;;;;;;3.80;2.65;;;;;;;7.18;69.95;98971.53;6228923;22;20398;-70
2022/10/20 00:23:11;;;;;;;3.30;2.80;;;;;;;7.16;69.63;98976.91;6228998;22;20332;-68
2022/10/20 00:25:39;;;;;;;2.55;2.33;;;;;;;7.17;69.52;98985.72;6228286;22;20087;-70
2022/10/20 00:28:03;;;;;;;5.68;2.83;;;;;;;7.14;70.01;98978.81;6227449;22;20015;-71
2022/10/20 00:30:28;;;;;;;4.50;2.65;;;;;;;7.15;69.71;98990.28;6229177;22;20130;-71
2022/10/20 00:32:53;;;;;;;4.47;2.92;;;;;;;7.14;69.85;98996.53;6228157;22;20023;-69
2022/10/20 00:35:17;;;;;;;3.42;2.35;;;;;;;7.13;70.07;98993.03;6229625;22;20034;-72
2022/10/20 00:37:42;;;;;;;1.90;1.80;;;;;;;7.14;70.12;98993.88;6228210;22;20019;-69
2022/10/20 00:40:07;;;;;;;3.25;2.63;;;;;;;7.14;69.38;98991.22;6228925;22;20037;-67
2022/10/20 00:42:31;;;;;;;3.90;2.80;;;;;;;7.13;69.17;98997.47;6228603;22;20019;-68
2022/10/20 00:44:58;;;;;;;6.05;2.60;;;;;;;7.11;69.58;99000.22;6228962;22;20027;-69
2022/10/20 00:47:32;;;;;;;3.17;2.15;;;;;;;7.16;69.51;99005.22;6229072;22;20022;-69
2022/10/20 00:50:12;;;;;;;5.93;3.38;;;;;;;7.16;69.24;99016.69;6227149;22;20019;-68
2022/10/20 00:52:38;;;;;;;3.45;2.50;;;;;;;7.16;69.03;99014.03;6226993;22;20320;-70
2022/10/20 00:55:05;;;;;;;3.22;2.40;;;;;;;7.17;69.17;99020.19;6227263;22;20042;-71
2022/10/20 00:57:31;;;;;;;4.32;2.45;;;;;;;7.17;68.92;99020.19;6225803;22;20015;-70
2022/10/20 00:59:56;;;;;;;3.15;2.10;;;;;;;7.18;68.75;99017.44;6228946;22;20047;-70
2022/10/20 01:02:21;;;;;;;3.95;2.70;;;;;;;7.17;69.34;99017.53;6230157;22;20015;-70
2022/10/20 01:04:46;;;;;;;3.78;2.17;;;;;;;7.16;68.65;99015.81;6230850;22;20023;-72
2022/10/20 01:07:10;;;;;;;3.13;2.70;;;;;;;7.15;69.02;99017.63;6231494;22;20015;-72
2022/10/20 01:09:37;;;;;;;3.40;2.38;;;;;;;7.14;69.21;99013.28;6203104;22;20022;-72
2022/10/20 01:12:26;;;;;;;7.38;2.30;;;;;;;7.22;69.18;99021.56;6231755;22;20018;-72
2022/10/20 01:14:56;;;;;;;6.50;2.22;;;;;;;7.17;68.78;99028.97;6231916;22;20438;-69
2022/10/20 01:17:42;;;;;;;4.32;2.47;;;;;;;7.21;68.96;99033.13;6231581;22;20030;-70
2022/10/20 01:20:31;;;;;;;3.80;2.38;;;;;;;7.20;68.80;99027.94;6255067;22;20024;-72
2022/10/20 01:23:16;;;;;;;3.42;2.63;;;;;;;7.20;69.30;99039.38;6257797;22;20075;-68
2022/10/20 01:25:47;;;;;;;3.90;2.45;;;;;;;7.13;68.83;99031.94;6242466;22;20026;-74
2022/10/20 01:28:44;;;;;;;4.30;2.75;;;;;;;7.19;69.02;99042.13;6235660;22;20019;-67
2022/10/20 01:31:45;;;;;;;4.80;2.50;;;;;;;7.18;69.06;99043.94;6106910;23;20021;-69
2022/10/20 01:34:45;;;;;;;5.25;2.65;;;;;;;7.15;69.26;99052.09;6021091;23;20030;-73
2022/10/20 01:37:20;;;;;;;3.17;2.13;;;;;;;7.15;69.31;99051.25;5962835;23;20023;-74
2022/10/20 01:40:01;;;;;;;4.03;2.53;;;;;;;7.18;69.53;99054.53;5961716;23;20024;-69
2022/10/20 01:42:28;;;;;;;3.10;2.58;;;;;;;7.13;69.79;99051.34;5938901;23;20425;-69
2022/10/20 01:44:57;;;;;;;4.35;2.47;;;;;;;7.14;69.68;99060.13;5940981;23;20031;-69
2022/10/20 01:47:25;;;;;;;7.05;2.83;;;;;;;7.13;70.14;99055.78;5939414;23;20042;-67
2022/10/20 01:49:51;;;;;;;4.78;2.42;;;;;;;7.10;69.76;99066.63;5964718;23;20023;-69
2022/10/20 01:52:16;;;;;;;2.92;2.08;;;;;;;7.10;70.04;99069.28;5965650;23;20026;-70
2022/10/20 01:54:41;;;;;;;4.60;2.55;;;;;;;7.06;70.21;99073.91;5976178;23;20028;-70
2022/10/20 01:57:23;;;;;;;7.18;3.30;;;;;;;7.06;70.35;99081.00;5980231;23;20028;-73
2022/10/20 02:00:05;;;;;;;4.00;2.65;;;;;;;7.08;70.09;99081.75;5953786;23;20026;-74
2022/10/20 02:02:49;;;;;;;2.22;2.00;;;;;;;7.04;70.29;99080.25;5963499;23;20076;-74
2022/10/20 02:05:22;;;;;;;4.55;2.72;;;;;;;7.00;70.44;99086.72;5962901;23;20020;-73
2022/10/20 02:07:47;;;;;;;2.35;2.15;;;;;;;6.98;70.74;99086.81;6008934;23;20072;-72
2022/10/20 02:10:18;;;;;;;3.80;2.45;;;;;;;7.02;70.84;99098.06;6068112;23;20012;-73
2022/10/20 02:12:46;;;;;;;2.38;2.03;;;;;;;6.99;70.63;99092.97;6150987;22;20011;-72
2022/10/20 02:15:35;;;;;;;2.90;2.63;;;;;;;6.97;70.56;99098.38;6207599;22;20085;-70
2022/10/20 02:18:03;;;;;;;4.35;2.90;;;;;;;6.98;70.97;99102.72;6227904;22;20023;-71
2022/10/20 02:20:30;;;;;;;2.67;1.98;;;;;;;6.96;70.69;99109.06;6229843;22;20098;-72
2022/10/20 02:22:56;;;;;;;3.60;2.38;;;;;;;6.96;70.55;99107.28;6228670;22;20011;-71
2022/10/20 02:25:23;;;;;;;4.53;2.40;;;;;;;6.95;70.59;99118.81;6229976;22;20047;-71
2022/10/20 02:27:50;;;;;;;3.38;2.50;;;;;;;6.94;70.68;99114.47;6228134;22;20015;-71
2022/10/20 02:30:17;;;;;;;2.90;2.17;;;;;;;6.94;70.81;99111.81;6229005;22;20019;-71
2022/10/20 02:32:48;;;;;;;7.57;2.28;;;;;;;6.96;70.93;99117.03;6229587;22;20356;-69
2022/10/20 02:35:17;;;;;;;2.13;1.88;;;;;;;6.96;70.24;99120.53;6229915;22;20327;-71
2022/10/20 02:37:41;;;;;;;3.80;2.28;;;;;;;6.92;70.49;99113.72;6232495;22;20054;-75
2022/10/20 02:40:07;;;;;;;2.38;1.83;;;;;;;6.90;69.92;99126.19;6233335;22;20016;-78
2022/10/20 02:42:31;;;;;;;3.05;1.95;;;;;;;6.90;69.67;99124.41;6231697;22;20020;-74
2022/10/20 02:44:56;;;;;;;2.72;2.10;;;;;;;6.89;70.29;99125.34;6231309;22;20022;-71
2022/10/20 02:47:21;;;;;;;4.68;1.85;;;;;;;6.90;69.61;99126.19;6230711;22;20023;-74
2022/10/20 02:49:45;;;;;;;3.15;2.53;;;;;;;6.88;69.86;99128.13;6230867;22;20015;-77
2022/10/20 02:52:10;;;;;;;2.38;1.50;;;;;;;6.88;69.80;99134.25;6230674;22;20018;-75
2022/10/20 02:54:34;;;;;;;2.30;1.83;;;;;;;6.91;70.29;99134.06;6232109;22;20020;-71
2022/10/20 02:56:59;;;;;;;2.72;1.95;;;;;;;6.89;69.62;99133.28;6229992;22;20015;-76
2022/10/20 02:59:24;;;;;;;2.25;1.65;;;;;;;6.88;69.84;99133.44;6230233;22;20016;-77
2022/10/20 03:01:50;;;;;;;2.35;1.90;;;;;;;6.88;69.94;99138.72;6232619;22;20351;-79
2022/10/20 03:04:14;;;;;;;2.33;2.13;;;;;;;6.89;70.12;99143.03;6232136;22;20042;-75
2022/10/20 03:06:40;;;;;;;2.08;1.55;;;;;;;6.87;69.90;99150.28;6223813;22;20015;-71
2022/10/20 03:09:04;;;;;;;3.00;1.85;;;;;;;6.84;69.52;99147.81;6227079;22;20016;-72
2022/10/20 03:11:29;;;;;;;2.25;1.58;;;;;;;6.85;69.66;99160.97;6231581;22;20118;-77
2022/10/20 03:13:54;;;;;;;3.65;2.20;;;;;;;6.85;70.11;99160.09;6203954;22;20328;-74
2022/10/20 03:16:18;;;;;;;3.33;2.10;;;;;;;6.85;69.84;99163.59;6228164;22;20023;-73
2022/10/20 03:18:43;;;;;;;2.47;2.20;;;;;;;6.87;70.26;99166.16;6230036;22;20023;-71
2022/10/20 03:21:08;;;;;;;2.47;2.13;;;;;;;6.87;70.41;99166.16;6227410;22;20016;-71
2022/10/20 03:23:32;;;;;;;2.75;1.95;;;;;;;6.91;70.61;99167.66;6229964;22;20375;-72
2022/10/20 03:26:10;;;;;;;3.58;2.17;;;;;;;6.99;70.56;99172.47;6228211;22;20499;-71
2022/10/20 03:28:35;;;;;;;3.97;2.42;;;;;;;6.95;70.43;99171.81;6230287;22;20069;-74
2022/10/20 03:30:59;;;;;;;5.25;2.72;;;;;;;6.97;70.59;99169.06;6230077;22;20019;-73
2022/10/20 03:33:25;;;;;;;4.35;2.72;;;;;;;7.01;70.50;99170.56;6229635;22;20098;-72
2022/10/20 03:35:49;;;;;;;3.22;2.78;;;;;;;7.02;70.88;99177.56;6227735;22;20340;-72
2022/10/20 03:38:14;;;;;;;4.60;3.20;;;;;;;7.04;71.52;99192.41;6229716;22;20375;-74
2022/10/20 03:40:39;;;;;;;4.35;3.92;;;;;;;7.07;71.29;99194.88;6229874;22;20023;-74
2022/10/20 03:43:03;;;;;;;3.92;2.92;;;;;;;7.09;71.07;99181.53;6229999;22;20652;-75
2022/10/20 03:45:28;;;;;;;2.83;2.63;;;;;;;7.08;71.49;99198.38;6229811;22;20153;-76
2022/10/20 03:47:53;;;;;;;3.78;3.22;;;;;;;7.12;71.62;99194.56;6228992;22;20770;-71
2022/10/20 03:50:17;;;;;;;4.05;3.03;;;;;;;7.14;71.49;99188.22;6228146;22;20022;-72
2022/10/20 03:52:42;;;;;;;6.10;4.07;;;;;;;7.15;71.93;99194.38;6228971;22;20046;-72
2022/10/20 03:55:07;;;;;;;4.97;3.70;;;;;;;7.16;71.71;99202.25;6227901;22;20019;-73
2022/10/20 03:57:32;;;;;;;6.43;3.88;;;;;;;7.18;71.96;99212.75;6229677;22;20019;-72
2022/10/20 03:59:56;;;;;;;4.85;4.00;;;;;;;7.21;71.76;99205.44;6228127;22;20060;-73
2022/10/20 04:02:27;;;;;;;7.45;4.18;;;;;;;7.27;71.78;99210.34;6233396;22;20107;-72
2022/10/20 04:04:51;;;;;;;6.05;4.55;;;;;;;7.27;71.72;99212.16;6235715;22;20019;-72
2022/10/20 04:07:16;;;;;;;6.85;4.50;;;;;;;7.26;72.02;99206.00;6236011;22;20015;-69
2022/10/20 04:09:40;;;;;;;15.20;5.78;;;;;;;7.28;72.36;99216.50;6232484;22;20453;-68
2022/10/20 04:12:05;;;;;;;7.93;5.13;;;;;;;7.30;72.03;99209.31;6238281;22;20097;-69
2022/10/20 04:14:29;;;;;;;11.45;5.70;;;;;;;7.32;72.17;99218.00;6235093;22;20113;-69
2022/10/20 04:16:54;;;;;;;10.18;5.82;;;;;;;7.31;71.83;99226.91;6230199;22;20078;-69
2022/10/20 04:19:18;;;;;;;6.32;5.22;;;;;;;7.29;72.10;99228.81;6231271;22;20023;-70
2022/10/20 04:21:43;;;;;;;8.18;5.55;;;;;;;7.29;71.80;99229.66;6230950;22;20080;-71
2022/10/20 04:24:07;;;;;;;8.48;6.03;;;;;;;7.31;72.20;99232.22;6228908;22;20015;-71
2022/10/20 04:26:33;;;;;;;6.25;5.32;;;;;;;7.33;71.86;99240.94;6202791;22;20358;-72
2022/10/20 04:28:58;;;;;;;7.18;5.25;;;;;;;7.32;71.95;99233.06;6227882;22;20328;-71
2022/10/20 04:31:22;;;;;;;9.82;6.00;;;;;;;7.33;72.15;99240.09;6229148;22;20046;-72
2022/10/20 04:33:47;;;;;;;9.88;6.00;;;;;;;7.33;71.98;99240.09;6201658;22;20037;-71
2022/10/20 04:36:12;;;;;;;7.45;5.70;;;;;;;7.33;72.16;99243.59;6228676;22;20015;-73
2022/10/20 04:38:37;;;;;;;7.85;6.18;;;;;;;7.35;72.40;99256.72;6229420;22;20022;-72
2022/10/20 04:41:03;;;;;;;7.68;5.75;;;;;;;7.35;72.63;99260.22;6229924;22;20016;-72
2022/10/20 04:43:28;;;;;;;8.10;5.93;;;;;;;7.35;72.47;99248.75;6229092;22;20015;-73
2022/10/20 04:45:57;;;;;;;8.55;5.90;;;;;;;7.30;72.97;99259.69;6228830;22;20027;-73
2022/10/20 04:48:21;;;;;;;10.07;5.78;;;;;;;7.25;72.79;99264.41;6227056;22;20026;-72
2022/10/20 04:50:46;;;;;;;10.57;6.05;;;;;;;7.22;72.79;99264.63;6228049;22;20019;-74
2022/10/20 04:53:10;;;;;;;8.55;6.05;;;;;;;7.18;72.51;99266.63;6230008;22;20094;-74
2022/10/20 04:55:35;;;;;;;9.52;6.43;;;;;;;7.20;73.10;99271.81;6229100;22;20046;-72
2022/10/20 04:58:00;;;;;;;6.93;5.40;;;;;;;7.15;72.19;99268.59;6227549;22;20015;-72
2022/10/20 05:00:25;;;;;;;7.28;5.03;;;;;;;7.12;71.81;99272.28;6226991;22;20132;-73
2022/10/20 05:02:49;;;;;;;7.57;5.68;;;;;;;7.08;71.51;99270.81;6228409;22;20019;-71
2022/10/20 05:05:14;;;;;;;8.80;5.70;;;;;;;7.08;71.15;99275.25;6229017;22;20019;-71
2022/10/20 05:07:38;;;;;;;6.22;5.10;;;;;;;7.08;71.08;99284.06;6227567;22;20020;-70
2022/10/20 05:10:04;;;;;;;8.90;5.20;;;;;;;7.04;71.39;99287.84;6228961;22;20018;-72
2022/10/20 05:12:28;;;;;;;7.25;4.93;;;;;;;7.05;70.68;99296.63;6226915;22;20042;-72
2022/10/20 05:14:53;;;;;;;9.30;5.90;;;;;;;7.01;71.12;99289.81;6228719;22;20017;-69
2022/10/20 05:17:18;;;;;;;10.73;5.93;;;;;;;7.02;71.14;99294.16;6227455;22;20016;-75
2022/10/20 05:19:42;;;;;;;9.70;6.78;;;;;;;7.02;71.15;99294.16;6227843;22;20026;-75
2022/10/20 05:22:07;;;;;;;9.52;6.28;;;;;;;7.03;71.17;99301.19;6227828;22;20080;-75
2022/10/20 05:24:32;;;;;;;9.65;6.57;;;;;;;7.05;71.68;99309.88;6227446;22;20022;-75
2022/10/20 05:26:56;;;;;;;10.48;6.25;;;;;;;7.01;71.65;99305.72;6228224;22;20039;-75
2022/10/20 05:29:21;;;;;;;11.82;6.75;;;;;;;6.93;72.71;99311.50;6230113;22;20019;-75
2022/10/20 05:31:46;;;;;;;11.55;6.40;;;;;;;6.84;73.13;99310.28;6228651;22;20800;-75
2022/10/20 05:34:11;;;;;;;8.18;5.63;;;;;;;6.70;73.07;99322.66;6228845;22;20025;-76
2022/10/20 05:36:35;;;;;;;8.43;6.60;;;;;;;6.54;74.26;99330.69;6229189;22;20130;-76
2022/10/20 05:39:00;;;;;;;8.48;6.10;;;;;;;6.41;74.92;99325.28;6229064;22;20011;-75
2022/10/20 05:41:30;;;;;;;10.07;6.50;;;;;;;6.41;75.50;99327.91;6228152;22;20162;-76
2022/10/20 05:43:57;;;;;;;10.52;6.78;;;;;;;6.36;76.63;99331.78;6229695;22;20058;-74
2022/10/20 05:46:23;;;;;;;9.75;6.43;;;;;;;6.31;76.45;99334.72;6231430;22;20026;-77
2022/10/20 05:48:47;;;;;;;8.55;6.40;;;;;;;6.31;77.36;99331.22;6230272;22;20045;-77
2022/10/20 05:51:13;;;;;;;11.10;7.22;;;;;;;6.33;76.93;99342.53;6229672;22;20020;-77
2022/10/20 05:53:38;;;;;;;11.40;6.68;;;;;;;6.31;76.85;99340.00;6229383;22;20019;-77
2022/10/20 05:56:05;;;;;;;10.45;6.95;;;;;;;6.30;77.49;99346.25;6230712;22;20065;-78
2022/10/20 05:58:30;;;;;;;9.82;6.32;;;;;;;6.29;77.43;99356.91;6230914;22;20023;-77
2022/10/20 06:01:07;;;;;;;10.90;7.28;;;;;;;6.31;77.89;99361.19;6233568;22;20080;-75
2022/10/20 06:03:32;;;;;;;9.38;6.82;;;;;;;6.31;77.74;99362.97;6239959;22;20038;-77
2022/10/20 06:05:58;;;;;;;8.80;5.63;;;;;;;6.35;77.46;99357.38;6229246;22;20011;-75
2022/10/20 06:08:22;;;;;;;10.23;6.75;;;;;;;6.41;77.35;99353.53;6230612;22;20047;-75
2022/10/20 06:10:47;;;;;;;13.90;6.78;;;;;;;6.46;77.92;99359.41;6207089;22;20022;-75
2022/10/20 06:13:11;;;;;;;9.25;7.07;;;;;;;6.56;77.61;99365.84;6235697;22;20020;-75
2022/10/20 06:15:36;;;;;;;10.32;7.57;;;;;;;6.69;77.73;99365.97;6234893;22;20061;-75
2022/10/20 06:18:01;;;;;;;10.63;5.95;;;;;;;6.79;76.80;99364.47;6241152;22;20134;-75
2022/10/20 06:20:26;;;;;;;12.15;6.15;;;;;;;6.85;75.82;99372.94;6236800;22;20011;-75
2022/10/20 06:22:50;;;;;;;10.45;6.85;;;;;;;6.88;75.92;99372.72;6233122;22;20058;-71
2022/10/20 06:25:15;;;;;;;8.57;5.90;;;;;;;6.95;75.89;99375.88;6230952;22;20016;-70
2022/10/20 06:27:41;;;;;;;8.85;6.40;;;;;;;7.07;74.91;99385.72;6230491;22;20020;-70
2022/10/20 06:30:06;;;;;;;8.45;5.88;;;;;;;7.18;74.55;99379.75;6229426;22;20054;-70
2022/10/20 06:32:30;;;;;;;12.13;6.35;;;;;;;7.24;73.87;99380.22;6230145;22;20099;-69
2022/10/20 06:34:55;;;;;;;11.07;6.70;;;;;;;7.31;72.71;99374.56;6228668;22;20054;-69
2022/10/20 06:37:19;;;;;;;11.07;5.68;;;;;;;7.35;72.05;99376.03;6229985;22;20011;-69
2022/10/20 06:39:44;;;;;;;9.93;5.80;;;;;;;7.44;71.82;99386.09;6230149;22;20600;-70
2022/10/20 06:42:08;;;;;;;8.77;5.85;;;;;;;7.50;71.71;99386.56;6230275;22;20097;-70
2022/10/20 06:44:33;;;;;;;14.13;5.53;;;;;;;7.61;70.87;99380.56;6229654;22;20026;-70
2022/10/20 06:46:58;;;;;;;8.02;5.10;;;;;;;7.69;70.03;99390.69;6228611;22;20019;-71
2022/10/20 06:49:22;;;;;;;6.15;4.45;;;;;;;7.79;69.58;99381.22;6229953;22;20351;-71
2022/10/20 06:51:47;;;;;;;9.93;5.97;;;;;;;7.90;68.69;99384.03;6228584;22;20114;-72
2022/10/20 06:54:12;;;;;;;8.48;4.78;;;;;;;7.99;68.35;99386.94;6229318;22;20518;-70
2022/10/20 06:56:38;;;;;;;7.43;5.00;;;;;;;8.05;67.42;99393.63;6228699;22;20390;-71
2022/10/20 06:59:03;;;;;;;7.30;4.30;;;;;;;8.11;66.54;99384.44;6202829;22;20519;-70
2022/10/20 07:01:35;;;;;;;7.97;5.28;;;;;;;8.31;66.36;99384.84;6229670;22;20447;-70
2022/10/20 07:04:03;;;;;;;10.23;4.80;;;;;;;8.42;65.10;99384.13;6228050;22;20015;-70
2022/10/20 07:06:31;;;;;;;7.95;4.40;;;;;;;8.57;64.20;99391.09;6230060;22;20020;-70
2022/10/20 07:08:56;;;;;;;7.05;4.60;;;;;;;8.68;63.16;99399.19;6229414;22;20452;-69
2022/10/20 07:11:23;;;;;;;10.02;4.90;;;;;;;8.78;62.27;99393.25;6230160;22;20042;-71
2022/10/20 07:13:48;;;;;;;5.82;4.35;;;;;;;8.91;61.71;99400.28;6228121;22;20020;-71
2022/10/20 07:16:15;;;;;;;11.90;4.43;;;;;;;9.09;61.64;99398.16;6228300;22;20090;-73
2022/10/20 07:18:40;;;;;;;7.18;4.20;;;;;;;9.34;60.52;99398.16;6230167;22;20016;-71
2022/10/20 07:21:07;;;;;;;10.90;4.47;;;;;;;9.59;59.55;99402.59;6229700;22;20015;-70
2022/10/20 07:23:33;;;;;;;8.27;4.07;;;;;;;9.73;58.81;99410.41;6229652;22;20020;-71
2022/10/20 07:26:01;;;;;;;7.03;4.43;;;;;;;9.90;58.02;99405.69;6230022;22;20421;-70
2022/10/20 07:28:25;;;;;;;5.03;4.30;;;;;;;10.70;57.09;99398.88;6228964;22;20098;-70
2022/10/20 07:30:50;;;;;;;7.30;4.63;;;;;;;11.50;55.30;99402.41;6230111;22;20112;-70
2022/10/20 07:33:14;;;;;;;8.02;4.60;;;;;;;12.51;52.30;99409.28;6228153;22;20020;-70
2022/10/20 07:35:39;;;;;;;5.50;3.97;;;;;;;14.28;49.22;99397.38;6229978;22;20022;-69
2022/10/20 07:38:04;;;;;;;6.70;4.05;;;;;;;16.29;43.66;99397.91;6228007;22;20022;-71
2022/10/20 07:40:29;;;;;;;5.03;3.58;;;;;;;18.46;39.83;99401.38;6228270;22;20026;-71
2022/10/20 07:42:54;;;;;;;6.40;3.60;;;;;;;20.54;35.97;99404.03;6228160;22;20019;-71
2022/10/20 07:45:18;;;;;;;7.28;4.03;;;;;;;22.54;32.65;99516.47;6230010;22;20094;-72
2022/10/20 07:47:43;;;;;;;5.32;4.00;;;;;;;24.42;29.79;99401.50;6232115;22;20461;-71
2022/10/20 07:50:08;;;;;;;8.10;4.60;;;;;;;24.75;28.50;99415.22;6229857;22;20474;-72
2022/10/20 07:52:33;;;;;;;5.40;4.40;;;;;;;24.24;28.67;99412.13;6227415;22;20019;-70
2022/10/20 07:54:58;;;;;;;6.45;4.82;;;;;;;24.11;28.24;99412.03;6229104;22;20020;-71
2022/10/20 07:57:23;;;;;;;5.65;4.30;;;;;;;24.61;27.92;99406.16;6229164;22;20015;-70
2022/10/20 07:59:47;;;;;;;5.40;4.30;;;;;;;25.60;26.40;99413.63;6229825;22;20020;-69
2022/10/20 08:02:14;;;;;;;6.05;3.92;;;;;;;26.43;24.68;99416.59;6229393;22;20019;-70
2022/10/20 08:04:40;;;;;;;7.57;4.13;;;;;;;25.20;25.20;99415.53;6229516;22;20351;-72
2022/10/20 08:07:05;;;;;;;5.20;4.22;;;;;;;23.09;27.79;99418.00;6228230;22;20378;-71
2022/10/20 08:09:29;;;;;;;6.35;3.67;;;;;;;20.89;29.58;99416.16;6230637;22;20068;-71
2022/10/20 08:11:54;;;;;;;5.82;3.67;;;;;;;18.71;31.99;99414.94;6204820;22;20031;-71
2022/10/20 08:14:19;;;;;;;6.90;3.97;;;;;;;17.11;34.61;99431.00;6229272;22;20027;-70
2022/10/20 08:16:43;;;;;;;5.20;3.83;;;;;;;16.00;36.85;99432.19;6229838;22;20019;-71
2022/10/20 08:19:08;;;;;;;6.10;3.33;;;;;;;15.28;37.39;99432.81;6229165;22;20521;-71
2022/10/20 08:21:33;;;;;;;5.13;3.80;;;;;;;14.72;39.12;99433.59;6229088;22;20008;-71
2022/10/20 08:23:58;;;;;;;16.10;3.85;;;;;;;14.36;40.43;99432.38;6227739;22;20403;-72
2022/10/20 08:26:24;;;;;;;9.65;3.45;;;;;;;14.12;40.30;99440.78;6227814;22;20019;-71
2022/10/20 08:28:52;;;;;;;6.28;3.70;;;;;;;14.13;40.62;99430.94;6230348;22;20016;-72
2022/10/20 08:31:17;;;;;;;6.25;3.15;;;;;;;14.09;41.05;99441.09;6227127;22;20454;-72
2022/10/20 08:33:41;;;;;;;6.72;3.75;;;;;;;13.90;40.78;99438.34;6227822;22;20015;-72
2022/10/20 08:36:09;;;;;;;9.85;4.18;;;;;;;13.45;41.82;99438.69;6229386;22;20054;-71
2022/10/20 08:38:35;;;;;;;6.75;4.50;;;;;;;12.92;42.52;99437.91;6227972;22;20015;-70
2022/10/20 08:41:00;;;;;;;8.63;4.60;;;;;;;12.33;43.59;99446.38;6229440;22;20022;-72
2022/10/20 08:43:27;;;;;;;5.18;3.63;;;;;;;11.80;44.58;99441.88;6229234;22;20521;-71
2022/10/20 08:45:52;;;;;;;8.98;3.97;;;;;;;11.34;45.82;99447.25;6230829;22;20479;-71
2022/10/20 08:48:28;;;;;;;8.55;4.63;;;;;;;11.07;46.82;99456.41;6231609;22;20016;-72
2022/10/20 08:50:54;;;;;;;17.95;6.05;;;;;;;10.62;47.04;99455.41;6232168;22;20524;-71
2022/10/20 08:53:22;;;;;;;6.85;4.38;;;;;;;10.44;47.08;99460.31;6234630;22;20447;-73
2022/10/20 08:55:47;;;;;;;38.75;7.47;;;;;;;10.28;47.43;99454.38;6233435;22;20358;-71
2022/10/20 08:58:19;;;;;;;51.88;7.45;;;;;;;10.20;48.29;99456.75;6226859;22;20396;-73
2022/10/20 09:00:44;;;;;;;36.60;6.30;;;;;;;10.05;47.61;99455.16;6227033;22;20026;-72
2022/10/20 09:03:23;;;;;;;6.63;3.85;;;;;;;9.97;47.31;99466.38;6228741;22;20065;-71
2022/10/20 09:06:13;;;;;;;13.85;4.63;;;;;;;9.90;47.44;99461.63;6228834;22;20019;-74
2022/10/20 09:08:38;;;;;;;18.25;4.82;;;;;;;9.69;48.27;99472.84;6229240;22;20016;-71
2022/10/20 09:11:06;;;;;;;13.90;4.63;;;;;;;9.61;48.64;99472.50;6228532;22;20477;-72
2022/10/20 09:13:32;;;;;;;13.73;4.75;;;;;;;9.54;48.47;99473.91;6228698;22;20112;-72
2022/10/20 09:16:04;;;;;;;4.45;3.05;;;;;;;9.53;48.34;99469.53;6226737;22;20022;-73
2022/10/20 09:18:30;;;;;;;8.13;4.28;;;;;;;9.39;48.21;99480.28;6203531;22;20364;-76
2022/10/20 09:20:57;;;;;;;10.52;3.45;;;;;;;9.34;49.17;99482.44;6231346;22;20094;-77
2022/10/20 09:23:46;;;;;;;6.22;2.88;;;;;;;9.39;49.56;99473.16;6229451;22;20019;-78
2022/10/20 09:26:15;;;;;;;39.45;5.50;;;;;;;9.31;49.87;99475.50;6231633;22;20023;-76
2022/10/20 09:28:40;;;;;;;8.35;3.53;;;;;;;9.25;48.93;99481.25;6231617;22;20023;-76
2022/10/20 09:31:19;;;;;;;4.80;2.80;;;;;;;9.32;49.46;99481.66;6229809;22;20339;-77
2022/10/20 09:33:46;;;;;;;18.05;3.45;;;;;;;9.24;49.98;99478.69;6231790;22;20023;-77
2022/10/20 09:36:13;;;;;;;6.22;3.88;;;;;;;9.24;49.14;99478.69;6231652;22;20015;-76
2022/10/20 09:38:44;;;;;;;9.65;3.70;;;;;;;9.21;49.79;99479.75;6231972;22;20015;-77
2022/10/20 09:41:29;;;;;;;8.93;3.22;;;;;;;9.21;50.41;99481.56;6231291;22;20015;-78
2022/10/20 09:44:00;;;;;;;11.35;4.75;;;;;;;9.16;51.01;99483.66;6231464;22;20018;-78
2022/10/20 09:46:28;;;;;;;5.45;4.03;;;;;;;9.17;50.41;99482.72;6231210;22;20015;-77
2022/10/20 09:48:54;;;;;;;8.43;4.00;;;;;;;9.14;50.38;99470.50;6231562;22;20020;-78
2022/10/20 09:51:37;;;;;;;6.75;3.60;;;;;;;9.19;50.25;99476.34;6234603;22;20047;-77
2022/10/20 09:54:17;;;;;;;15.13;4.57;;;;;;;9.15;50.83;99477.50;6232866;22;20616;-80
2022/10/20 09:56:43;;;;;;;3.83;2.50;;;;;;;9.07;49.76;99471.84;6231305;22;20019;-77
2022/10/20 09:59:21;;;;;;;2.17;1.65;;;;;;;9.09;50.14;99484.09;6247199;22;20098;-76
2022/10/20 10:02:01;;;;;;;4.95;2.92;;;;;;;9.03;50.67;99481.84;6243836;22;20587;-76
2022/10/20 10:04:45;;;;;;;5.07;2.40;;;;;;;9.02;51.12;99477.50;6234775;22;20019;-74
2022/10/20 10:07:25;;;;;;;21.25;5.55;;;;;;;8.96;51.21;99483.22;6233377;22;20437;-76
2022/10/20 10:10:04;;;;;;;7.00;4.22;;;;;;;8.92;51.58;99484.38;6231861;22;20042;-77
2022/10/20 10:12:30;;;;;;;3.40;2.75;;;;;;;8.88;51.92;99487.34;6230985;22;20016;-76
2022/10/20 10:14:58;;;;;;;4.03;3.00;;;;;;;8.87;52.00;99489.16;6230653;22;20350;-77
2022/10/20 10:17:40;;;;;;;7.57;3.33;;;;;;;8.91;52.20;99479.19;6231133;22;20020;-77
2022/10/20 10:20:32;;;;;;;3.33;2.25;;;;;;;8.95;51.96;99481.50;6231360;22;20046;-75
2022/10/20 10:23:21;;;;;;;5.07;2.10;;;;;;;8.93;51.94;99487.88;6217797;22;20393;-75
2022/10/20 10:25:46;;;;;;;4.47;2.95;;;;;;;8.80;51.95;99482.56;6215596;22;20141;-76
2022/10/20 10:28:27;;;;;;;2.13;1.90;;;;;;;8.88;52.22;99488.22;6232987;22;20016;-76
2022/10/20 10:31:18;;;;;;;4.13;2.25;;;;;;;8.91;51.75;99490.66;6205318;22;20019;-77
2022/10/20 10:33:43;;;;;;;4.68;2.72;;;;;;;8.84;51.55;99485.84;6241922;22;20015;-76
2022/10/20 10:36:33;;;;;;;5.10;3.13;;;;;;;8.88;51.87;99487.34;6230821;22;20069;-75
2022/10/20 10:38:59;;;;;;;6.78;2.75;;;;;;;8.79;52.05;99483.50;6242656;22;20332;-78
2022/10/20 10:41:32;;;;;;;3.28;2.25;;;;;;;8.83;52.38;99487.66;6231969;22;20419;-77
2022/10/20 10:44:18;;;;;;;4.77;2.33;;;;;;;8.80;51.94;99481.72;6230026;22;20026;-76
2022/10/20 10:46:49;;;;;;;3.85;2.60;;;;;;;8.75;52.38;99489.97;6231404;22;20062;-73
2022/10/20 10:49:32;;;;;;;5.70;2.45;;;;;;;8.76;52.75;99485.50;6231678;22;20475;-72
2022/10/20 10:52:09;;;;;;;4.20;2.45;;;;;;;8.67;52.16;99486.97;6230752;22;20019;-71
2022/10/20 10:54:49;;;;;;;2.75;2.28;;;;;;;8.60;52.69;99496.28;6230805;22;20011;-71
2022/10/20 10:58:08;;;;;;;5.13;2.47;;;;;;;8.52;53.00;99494.16;6228976;22;20394;-77
2022/10/20 11:00:55;;;;;;;2.38;1.98;;;;;;;8.42;53.26;99487.72;6085230;23;20353;-74
2022/10/20 11:03:27;;;;;;;3.33;2.15;;;;;;;8.34;52.40;99504.19;6086008;23;20017;-74
2022/10/20 11:06:08;;;;;;;2.95;1.40;;;;;;;8.27;52.50;99499.31;6110069;23;20021;-74
2022/10/20 11:08:54;;;;;;;5.13;1.45;;;;;;;8.29;53.31;99514.19;6110554;23;20045;-74
2022/10/20 11:11:43;;;;;;;1.88;1.60;;;;;;;8.29;53.67;99500.06;6086071;23;20026;-75
2022/10/20 11:14:25;;;;;;;3.63;1.88;;;;;;;8.31;53.69;99498.16;6111794;23;20052;-74
2022/10/20 11:17:12;;;;;;;2.63;1.92;;;;;;;8.36;53.94;99498.75;6109685;23;20021;-74
2022/10/20 11:19:56;;;;;;;4.60;2.53;;;;;;;8.37;53.76;99505.75;6110118;23;20018;-78
2022/10/20 11:22:39;;;;;;;2.15;1.88;;;;;;;8.37;52.99;99495.97;6110250;23;20327;-78
2022/10/20 11:25:45;;;;;;;4.57;1.73;;;;;;;8.43;53.59;99509.84;6087176;23;20021;-78
2022/10/20 11:28:44;;;;;;;2.58;1.42;;;;;;;8.55;52.81;99503.72;6110948;23;20045;-78
2022/10/20 11:31:19;;;;;;;1.40;1.25;;;;;;;8.56;52.07;99506.28;6110334;23;20112;-78
2022/10/20 11:33:50;;;;;;;11.02;1.33;;;;;;;8.57;52.06;99512.47;6146262;22;20019;-80
2022/10/20 11:36:17;;;;;;;4.55;2.13;;;;;;;8.57;52.19;99517.78;6233592;22;20016;-76
2022/10/20 11:38:53;;;;;;;10.48;1.95;;;;;;;8.59;52.45;99510.53;6231287;22;20220;-75
2022/10/20 11:41:48;;;;;;;3.97;1.92;;;;;;;8.55;52.18;99515.22;6231699;22;20015;-77
2022/10/20 11:44:26;;;;;;;7.80;2.65;;;;;;;8.53;51.69;99505.63;6230900;22;20355;-76
2022/10/20 11:47:22;;;;;;;2.95;2.28;;;;;;;8.53;52.03;99505.63;6231017;22;20018;-76
2022/10/20 11:50:12;;;;;;;6.97;3.05;;;;;;;8.46;52.04;99504.34;6244373;22;20521;-75